sensor_id;sensor_type;location;lat;lon;timestamp;pressure;altitude;pressure_sealevel;temperature;humidity
63405;BME280;49541;57.840;12.306;2024-03-23T00:52:40;99207.63;;;4.82;100.00
63405;BME280;49541;57.840;12.306;2024-03-23T00:57:40;99221.88;;;5.01;100.00
63405;BME280;49541;57.840;12.306;2024-03-23T01:02:40;99209.81;;;4.77;100.00
63405;BME280;49541;57.840;12.306;2024-03-23T01:07:40;99203.81;;;4.75;100.00
63405;BME280;49541;57.840;12.306;2024-03-23T01:12:41;99199.63;;;4.93;100.00
63405;BME280;49541;57.840;12.306;2024-03-23T01:17:41;99196.22;;;5.03;100.00
63405;BME280;49541;57.840;12.306;2024-03-23T01:22:41;99188.75;;;5.08;100.00
63405;BME280;49541;57.840;12.306;2024-03-23T01:27:41;99187.44;;;5.23;100.00
63405;BME280;49541;57.840;12.306;2024-03-23T01:32:42;99185.66;;;5.03;100.00
63405;BME280;49541;57.840;12.306;2024-03-23T01:37:43;99173.94;;;5.17;100.00
63405;BME280;49541;57.840;12.306;2024-03-23T01:42:54;99176.00;;;5.13;100.00
63405;BME280;49541;57.840;12.306;2024-03-23T01:47:55;99160.16;;;5.13;100.00
63405;BME280;49541;57.840;12.306;2024-03-23T01:52:55;99157.00;;;5.19;100.00
63405;BME280;49541;57.840;12.306;2024-03-23T01:57:58;99139.19;;;5.11;100.00
63405;BME280;49541;57.840;12.306;2024-03-23T02:02:59;99143.03;;;4.98;100.00
63405;BME280;49541;57.840;12.306;2024-03-23T02:08:00;99148.19;;;4.99;100.00
63405;BME280;49541;57.840;12.306;2024-03-23T02:13:00;99138.69;;;4.97;100.00
63405;BME280;49541;57.840;12.306;2024-03-23T02:18:00;99141.88;;;4.90;100.00
63405;BME280;49541;57.840;12.306;2024-03-23T02:23:01;99133.00;;;4.91;100.00
63405;BME280;49541;57.840;12.306;2024-03-23T02:28:01;99125.50;;;4.97;100.00
63405;BME280;49541;57.840;12.306;2024-03-23T02:33:01;99120.88;;;5.10;100.00
63405;BME280;49541;57.840;12.306;2024-03-23T02:38:02;99114.25;;;4.95;100.00
63405;BME280;49541;57.840;12.306;2024-03-23T02:43:02;99101.69;;;5.08;100.00
63405;BME280;49541;57.840;12.306;2024-03-23T02:48:03;99100.72;;;5.09;100.00
63405;BME280;49541;57.840;12.306;2024-03-23T02:53:03;99085.75;;;5.19;100.00
63405;BME280;49541;57.840;12.306;2024-03-23T02:58:04;99094.03;;;5.05;100.00
63405;BME280;49541;57.840;12.306;2024-03-23T03:03:04;99091.09;;;4.98;100.00
63405;BME280;49541;57.840;12.306;2024-03-23T03:08:04;99082.88;;;4.91;100.00
63405;BME280;49541;57.840;12.306;2024-03-23T03:13:05;99068.91;;;4.70;100.00
63405;BME280;49541;57.840;12.306;2024-03-23T03:18:05;99051.28;;;4.70;100.00
63405;BME280;49541;57.840;12.306;2024-03-23T03:23:06;99062.91;;;4.89;100.00
63405;BME280;49541;57.840;12.306;2024-03-23T03:28:06;99046.09;;;4.90;100.00
63405;BME280;49541;57.840;12.306;2024-03-23T03:33:06;99045.09;;;4.81;100.00
63405;BME280;49541;57.840;12.306;2024-03-23T03:38:07;99032.31;;;4.77;100.00
63405;BME280;49541;57.840;12.306;2024-03-23T03:43:07;99020.56;;;4.90;100.00
63405;BME280;49541;57.840;12.306;2024-03-23T03:48:07;99027.78;;;4.88;100.00
63405;BME280;49541;57.840;12.306;2024-03-23T03:53:07;99016.66;;;4.85;100.00
63405;BME280;49541;57.840;12.306;2024-03-23T03:58:08;99009.84;;;4.82;100.00
63405;BME280;49541;57.840;12.306;2024-03-23T04:03:08;99003.19;;;4.78;100.00
63405;BME280;49541;57.840;12.306;2024-03-23T04:08:08;99002.13;;;4.90;100.00
63405;BME280;49541;57.840;12.306;2024-03-23T04:13:09;99000.44;;;4.89;100.00
63405;BME280;49541;57.840;12.306;2024-03-23T04:18:09;99003.38;;;5.06;100.00
63405;BME280;49541;57.840;12.306;2024-03-23T04:23:09;99004.78;;;5.10;100.00
63405;BME280;49541;57.840;12.306;2024-03-23T04:28:10;98995.56;;;4.95;100.00
63405;BME280;49541;57.840;12.306;2024-03-23T04:33:10;98996.25;;;4.97;100.00
63405;BME280;49541;57.840;12.306;2024-03-23T04:38:10;98981.69;;;4.83;100.00
63405;BME280;49541;57.840;12.306;2024-03-23T04:43:10;98988.22;;;4.88;100.00
63405;BME280;49541;57.840;12.306;2024-03-23T04:48:11;98976.28;;;4.84;100.00
63405;BME280;49541;57.840;12.306;2024-03-23T04:53:11;98965.72;;;4.84;100.00
63405;BME280;49541;57.840;12.306;2024-03-23T04:58:11;98982.81;;;5.00;100.00
63405;BME280;49541;57.840;12.306;2024-03-23T05:03:12;98974.50;;;5.04;100.00
63405;BME280;49541;57.840;12.306;2024-03-23T05:08:12;98969.63;;;5.00;100.00
63405;BME280;49541;57.840;12.306;2024-03-23T05:13:12;98972.25;;;4.90;100.00
63405;BME280;49541;57.840;12.306;2024-03-23T05:18:13;98962.56;;;4.90;100.00
63405;BME280;49541;57.840;12.306;2024-03-23T05:23:13;98979.66;;;5.06;100.00
63405;BME280;49541;57.840;12.306;2024-03-23T05:28:13;98968.38;;;4.94;100.00
63405;BME280;49541;57.840;12.306;2024-03-23T05:33:13;98963.25;;;5.02;100.00
63405;BME280;49541;57.840;12.306;2024-03-23T05:38:14;98970.06;;;4.95;100.00
63405;BME280;49541;57.840;12.306;2024-03-23T05:43:14;98966.88;;;5.11;100.00
63405;BME280;49541;57.840;12.306;2024-03-23T05:48:14;98954.66;;;5.29;100.00
63405;BME280;49541;57.840;12.306;2024-03-23T05:53:18;98940.22;;;5.33;100.00
63405;BME280;49541;57.840;12.306;2024-03-23T05:58:18;98947.69;;;5.48;100.00
63405;BME280;49541;57.840;12.306;2024-03-23T06:03:18;98940.19;;;5.14;100.00
63405;BME280;49541;57.840;12.306;2024-03-23T06:08:19;98936.31;;;4.99;100.00
63405;BME280;49541;57.840;12.306;2024-03-23T06:13:20;98950.19;;;5.01;100.00
63405;BME280;49541;57.840;12.306;2024-03-23T06:18:21;98937.44;;;5.16;100.00
63405;BME280;49541;57.840;12.306;2024-03-23T06:23:21;98932.97;;;4.97;100.00
63405;BME280;49541;57.840;12.306;2024-03-23T06:28:21;98942.03;;;5.23;100.00
63405;BME280;49541;57.840;12.306;2024-03-23T06:33:22;98938.25;;;5.16;100.00
63405;BME280;49541;57.840;12.306;2024-03-23T06:38:22;98931.63;;;5.31;100.00
63405;BME280;49541;57.840;12.306;2024-03-23T06:43:22;98922.25;;;5.66;100.00
63405;BME280;49541;57.840;12.306;2024-03-23T06:48:22;98925.72;;;5.67;100.00
63405;BME280;49541;57.840;12.306;2024-03-23T06:53:23;98923.59;;;5.80;100.00
63405;BME280;49541;57.840;12.306;2024-03-23T06:58:24;98925.00;;;5.84;100.00
63405;BME280;49541;57.840;12.306;2024-03-23T07:03:24;98930.06;;;5.68;100.00
63405;BME280;49541;57.840;12.306;2024-03-23T07:08:26;98935.72;;;5.63;100.00
63405;BME280;49541;57.840;12.306;2024-03-23T07:13:26;98923.91;;;5.77;100.00
63405;BME280;49541;57.840;12.306;2024-03-23T07:18:26;98923.47;;;5.72;100.00
63405;BME280;49541;57.840;12.306;2024-03-23T07:23:27;98923.19;;;5.85;100.00
63405;BME280;49541;57.840;12.306;2024-03-23T07:28:27;98934.31;;;5.98;100.00
63405;BME280;49541;57.840;12.306;2024-03-23T07:33:31;98935.53;;;5.94;100.00
63405;BME280;49541;57.840;12.306;2024-03-23T07:38:32;98940.50;;;6.17;100.00
63405;BME280;49541;57.840;12.306;2024-03-23T07:43:32;98935.56;;;6.31;100.00
63405;BME280;49541;57.840;12.306;2024-03-23T07:48:33;98924.19;;;6.31;100.00
63405;BME280;49541;57.840;12.306;2024-03-23T07:53:33;98915.16;;;6.51;100.00
63405;BME280;49541;57.840;12.306;2024-03-23T07:58:34;98911.84;;;6.22;100.00
63405;BME280;49541;57.840;12.306;2024-03-23T08:03:35;98916.31;;;6.11;100.00
63405;BME280;49541;57.840;12.306;2024-03-23T08:08:35;98904.94;;;6.11;100.00
63405;BME280;49541;57.840;12.306;2024-03-23T08:13:37;98918.78;;;6.50;100.00
63405;BME280;49541;57.840;12.306;2024-03-23T08:18:37;98899.25;;;6.33;100.00
63405;BME280;49541;57.840;12.306;2024-03-23T08:23:37;98891.47;;;6.60;100.00
63405;BME280;49541;57.840;12.306;2024-03-23T08:28:38;98891.81;;;6.47;100.00
63405;BME280;49541;57.840;12.306;2024-03-23T08:33:39;98890.16;;;6.46;100.00
63405;BME280;49541;57.840;12.306;2024-03-23T08:38:40;98890.25;;;6.26;100.00
63405;BME280;49541;57.840;12.306;2024-03-23T08:43:41;98894.38;;;6.01;100.00
63405;BME280;49541;57.840;12.306;2024-03-23T08:48:41;98901.53;;;5.71;100.00
63405;BME280;49541;57.840;12.306;2024-03-23T08:53:43;98908.25;;;5.56;100.00
63405;BME280;49541;57.840;12.306;2024-03-23T08:58:44;98907.22;;;5.96;100.00
63405;BME280;49541;57.840;12.306;2024-03-23T09:03:44;98896.91;;;6.30;100.00
63405;BME280;49541;57.840;12.306;2024-03-23T09:08:45;98896.47;;;6.35;100.00
63405;BME280;49541;57.840;12.306;2024-03-23T09:13:45;98887.84;;;6.79;100.00
63405;BME280;49541;57.840;12.306;2024-03-23T09:18:45;98881.81;;;6.41;100.00
63405;BME280;49541;57.840;12.306;2024-03-23T09:23:46;98882.13;;;6.38;100.00
63405;BME280;49541;57.840;12.306;2024-03-23T09:28:48;98880.22;;;6.30;100.00
63405;BME280;49541;57.840;12.306;2024-03-23T09:33:48;98885.31;;;6.13;100.00
63405;BME280;49541;57.840;12.306;2024-03-23T09:38:49;98893.25;;;6.41;100.00
63405;BME280;49541;57.840;12.306;2024-03-23T09:43:52;98887.44;;;6.28;100.00
63405;BME280;49541;57.840;12.306;2024-03-23T09:48:52;98894.25;;;6.58;100.00
63405;BME280;49541;57.840;12.306;2024-03-23T09:53:52;98884.69;;;6.47;100.00
63405;BME280;49541;57.840;12.306;2024-03-23T09:58:59;98874.91;;;6.30;100.00
63405;BME280;49541;57.840;12.306;2024-03-23T10:04:00;98886.94;;;5.77;100.00
63405;BME280;49541;57.840;12.306;2024-03-23T10:09:00;98916.84;;;5.48;100.00
63405;BME280;49541;57.840;12.306;2024-03-23T10:14:00;98891.31;;;5.49;100.00
63405;BME280;49541;57.840;12.306;2024-03-23T10:19:00;98901.97;;;5.67;100.00
63405;BME280;49541;57.840;12.306;2024-03-23T10:24:07;98885.00;;;6.17;100.00
63405;BME280;49541;57.840;12.306;2024-03-23T10:29:08;98887.75;;;6.25;100.00
63405;BME280;49541;57.840;12.306;2024-03-23T10:34:12;98877.19;;;6.52;100.00
63405;BME280;49541;57.840;12.306;2024-03-23T10:39:12;98878.28;;;6.95;100.00
63405;BME280;49541;57.840;12.306;2024-03-23T10:44:12;98864.28;;;6.85;100.00
63405;BME280;49541;57.840;12.306;2024-03-23T10:49:13;98862.81;;;6.55;100.00
63405;BME280;49541;57.840;12.306;2024-03-23T10:54:13;98865.59;;;6.53;100.00
63405;BME280;49541;57.840;12.306;2024-03-23T10:59:14;98868.66;;;6.59;100.00
63405;BME280;49541;57.840;12.306;2024-03-23T11:04:29;98860.28;;;6.99;100.00
63405;BME280;49541;57.840;12.306;2024-03-23T11:14:35;98863.81;;;6.90;100.00
63405;BME280;49541;57.840;12.306;2024-03-23T11:19:36;98851.03;;;7.21;100.00
63405;BME280;49541;57.840;12.306;2024-03-23T11:24:37;98850.78;;;7.85;100.00
63405;BME280;49541;57.840;12.306;2024-03-23T11:29:38;98837.19;;;7.27;100.00
63405;BME280;49541;57.840;12.306;2024-03-23T11:34:38;98834.50;;;8.48;100.00
63405;BME280;49541;57.840;12.306;2024-03-23T11:39:39;98843.66;;;8.70;100.00
63405;BME280;49541;57.840;12.306;2024-03-23T11:44:39;98827.84;;;7.67;100.00
63405;BME280;49541;57.840;12.306;2024-03-23T11:49:39;98854.19;;;7.43;100.00
63405;BME280;49541;57.840;12.306;2024-03-23T11:54:41;98849.75;;;6.53;100.00
63405;BME280;49541;57.840;12.306;2024-03-23T11:59:41;98844.09;;;6.66;100.00
63405;BME280;49541;57.840;12.306;2024-03-23T12:04:42;98841.44;;;6.66;100.00
63405;BME280;49541;57.840;12.306;2024-03-23T12:09:42;98841.50;;;6.92;100.00
63405;BME280;49541;57.840;12.306;2024-03-23T12:14:43;98825.63;;;7.89;100.00
63405;BME280;49541;57.840;12.306;2024-03-23T12:19:43;98818.75;;;8.04;100.00
63405;BME280;49541;57.840;12.306;2024-03-23T12:24:44;98809.97;;;8.04;100.00
63405;BME280;49541;57.840;12.306;2024-03-23T12:29:45;98813.88;;;7.91;100.00
63405;BME280;49541;57.840;12.306;2024-03-23T12:34:46;98806.78;;;7.92;100.00
63405;BME280;49541;57.840;12.306;2024-03-23T12:39:47;98785.59;;;8.00;100.00
63405;BME280;49541;57.840;12.306;2024-03-23T12:44:47;98781.63;;;7.62;100.00
63405;BME280;49541;57.840;12.306;2024-03-23T12:49:48;98784.25;;;7.88;100.00
63405;BME280;49541;57.840;12.306;2024-03-23T12:54:49;98785.41;;;7.93;100.00
63405;BME280;49541;57.840;12.306;2024-03-23T12:59:50;98778.97;;;7.96;100.00
63405;BME280;49541;57.840;12.306;2024-03-23T13:04:51;98786.50;;;7.74;100.00
63405;BME280;49541;57.840;12.306;2024-03-23T13:09:52;98769.75;;;7.74;100.00
63405;BME280;49541;57.840;12.306;2024-03-23T13:14:53;98785.38;;;7.51;100.00
63405;BME280;49541;57.840;12.306;2024-03-23T13:19:56;98776.72;;;7.75;100.00
63405;BME280;49541;57.840;12.306;2024-03-23T13:24:56;98772.72;;;7.36;100.00
63405;BME280;49541;57.840;12.306;2024-03-23T13:29:56;98773.78;;;7.52;100.00
63405;BME280;49541;57.840;12.306;2024-03-23T13:34:56;98783.16;;;7.38;100.00
63405;BME280;49541;57.840;12.306;2024-03-23T13:39:56;98766.56;;;7.96;100.00
63405;BME280;49541;57.840;12.306;2024-03-23T13:44:57;98765.94;;;8.19;100.00
63405;BME280;49541;57.840;12.306;2024-03-23T13:49:57;98765.94;;;8.19;100.00
63405;BME280;49541;57.840;12.306;2024-03-23T13:54:57;98766.53;;;8.55;100.00
63405;BME280;49541;57.840;12.306;2024-03-23T13:59:57;98759.28;;;8.74;100.00
63405;BME280;49541;57.840;12.306;2024-03-23T14:04:58;98751.78;;;8.77;100.00
63405;BME280;49541;57.840;12.306;2024-03-23T14:10:02;98740.19;;;9.67;100.00
63405;BME280;49541;57.840;12.306;2024-03-23T14:15:05;98752.25;;;9.22;100.00
63405;BME280;49541;57.840;12.306;2024-03-23T14:20:05;98736.22;;;8.42;100.00
63405;BME280;49541;57.840;12.306;2024-03-23T14:25:06;98736.97;;;8.34;100.00
63405;BME280;49541;57.840;12.306;2024-03-23T14:30:06;98740.34;;;7.93;100.00
63405;BME280;49541;57.840;12.306;2024-03-23T14:35:07;98742.25;;;7.67;100.00
63405;BME280;49541;57.840;12.306;2024-03-23T14:40:10;98744.66;;;7.52;100.00
63405;BME280;49541;57.840;12.306;2024-03-23T14:45:12;98757.56;;;7.47;100.00
63405;BME280;49541;57.840;12.306;2024-03-23T14:50:15;98776.63;;;6.44;100.00
63405;BME280;49541;57.840;12.306;2024-03-23T14:55:16;98762.19;;;6.21;100.00
63405;BME280;49541;57.840;12.306;2024-03-23T15:00:17;98762.97;;;7.37;100.00
63405;BME280;49541;57.840;12.306;2024-03-23T15:05:18;98756.81;;;8.05;100.00
63405;BME280;49541;57.840;12.306;2024-03-23T15:10:18;98751.81;;;7.94;100.00
63405;BME280;49541;57.840;12.306;2024-03-23T15:15:19;98743.66;;;8.46;100.00
63405;BME280;49541;57.840;12.306;2024-03-23T15:20:19;98746.25;;;8.30;100.00
63405;BME280;49541;57.840;12.306;2024-03-23T15:25:19;98747.66;;;8.58;100.00
63405;BME280;49541;57.840;12.306;2024-03-23T15:30:19;98736.84;;;9.73;100.00
63405;BME280;49541;57.840;12.306;2024-03-23T15:35:19;98729.09;;;8.83;100.00
63405;BME280;49541;57.840;12.306;2024-03-23T15:40:22;98731.66;;;8.26;100.00
63405;BME280;49541;57.840;12.306;2024-03-23T15:45:23;98735.28;;;8.16;100.00
63405;BME280;49541;57.840;12.306;2024-03-23T15:50:23;98745.69;;;7.59;100.00
63405;BME280;49541;57.840;12.306;2024-03-23T15:55:23;98740.75;;;7.04;100.00
63405;BME280;49541;57.840;12.306;2024-03-23T16:00:23;98743.50;;;7.54;100.00
63405;BME280;49541;57.840;12.306;2024-03-23T16:05:24;98744.59;;;8.20;100.00
63405;BME280;49541;57.840;12.306;2024-03-23T16:10:24;98732.34;;;8.19;100.00
63405;BME280;49541;57.840;12.306;2024-03-23T16:15:24;98739.47;;;7.68;100.00
63405;BME280;49541;57.840;12.306;2024-03-23T16:20:24;98736.97;;;7.67;100.00
63405;BME280;49541;57.840;12.306;2024-03-23T16:25:25;98735.25;;;7.23;100.00
63405;BME280;49541;57.840;12.306;2024-03-23T16:30:25;98740.03;;;6.93;100.00
63405;BME280;49541;57.840;12.306;2024-03-23T16:35:25;98730.16;;;7.30;100.00
63405;BME280;49541;57.840;12.306;2024-03-23T16:40:26;98728.25;;;7.40;100.00
63405;BME280;49541;57.840;12.306;2024-03-23T16:45:26;98722.91;;;7.66;100.00
63405;BME280;49541;57.840;12.306;2024-03-23T16:50:26;98725.25;;;7.77;100.00
63405;BME280;49541;57.840;12.306;2024-03-23T16:55:26;98722.72;;;7.59;100.00
63405;BME280;49541;57.840;12.306;2024-03-23T17:00:27;98719.16;;;7.43;100.00
63405;BME280;49541;57.840;12.306;2024-03-23T17:05:27;98713.75;;;7.26;100.00
63405;BME280;49541;57.840;12.306;2024-03-23T17:10:28;98721.28;;;7.13;100.00
63405;BME280;49541;57.840;12.306;2024-03-23T17:15:28;98721.53;;;7.28;100.00
63405;BME280;49541;57.840;12.306;2024-03-23T17:20:28;98717.06;;;7.28;100.00
63405;BME280;49541;57.840;12.306;2024-03-23T17:25:28;98711.69;;;7.12;100.00
63405;BME280;49541;57.840;12.306;2024-03-23T17:30:29;98710.53;;;6.44;100.00
63405;BME280;49541;57.840;12.306;2024-03-23T17:35:29;98713.47;;;6.59;100.00
63405;BME280;49541;57.840;12.306;2024-03-23T17:40:30;98714.50;;;6.84;100.00
63405;BME280;49541;57.840;12.306;2024-03-23T17:45:31;98704.22;;;6.81;100.00
63405;BME280;49541;57.840;12.306;2024-03-23T17:50:31;98712.00;;;6.83;100.00
63405;BME280;49541;57.840;12.306;2024-03-23T17:55:34;98712.25;;;6.53;100.00
63405;BME280;49541;57.840;12.306;2024-03-23T18:00:35;98709.47;;;6.55;100.00
63405;BME280;49541;57.840;12.306;2024-03-23T18:05:35;98722.25;;;6.86;100.00
63405;BME280;49541;57.840;12.306;2024-03-23T18:10:35;98710.03;;;7.11;100.00
63405;BME280;49541;57.840;12.306;2024-03-23T18:15:36;98714.97;;;6.62;100.00
63405;BME280;49541;57.840;12.306;2024-03-23T18:20:36;98712.44;;;6.16;100.00
63405;BME280;49541;57.840;12.306;2024-03-23T18:25:36;98718.63;;;6.07;100.00
63405;BME280;49541;57.840;12.306;2024-03-23T18:30:37;98721.84;;;5.73;100.00
63405;BME280;49541;57.840;12.306;2024-03-23T18:35:37;98718.72;;;5.60;100.00
63405;BME280;49541;57.840;12.306;2024-03-23T18:40:43;98729.91;;;5.99;100.00
63405;BME280;49541;57.840;12.306;2024-03-23T18:45:49;98723.16;;;6.50;100.00
63405;BME280;49541;57.840;12.306;2024-03-23T18:50:50;98720.25;;;6.26;100.00
63405;BME280;49541;57.840;12.306;2024-03-23T18:55:52;98713.88;;;6.28;100.00
63405;BME280;49541;57.840;12.306;2024-03-23T19:01:02;98707.34;;;6.41;100.00
63405;BME280;49541;57.840;12.306;2024-03-23T19:06:05;98706.97;;;6.71;100.00
63405;BME280;49541;57.840;12.306;2024-03-23T19:11:05;98701.16;;;6.68;100.00
63405;BME280;49541;57.840;12.306;2024-03-23T19:16:06;98699.19;;;6.70;100.00
63405;BME280;49541;57.840;12.306;2024-03-23T19:21:06;98696.94;;;6.83;100.00
63405;BME280;49541;57.840;12.306;2024-03-23T19:26:06;98693.94;;;6.52;100.00
63405;BME280;49541;57.840;12.306;2024-03-23T19:31:07;98696.56;;;6.34;100.00
63405;BME280;49541;57.840;12.306;2024-03-23T19:36:08;98695.44;;;6.19;100.00
63405;BME280;49541;57.840;12.306;2024-03-23T19:41:08;98694.22;;;6.13;100.00
63405;BME280;49541;57.840;12.306;2024-03-23T19:46:08;98697.31;;;6.44;100.00
63405;BME280;49541;57.840;12.306;2024-03-23T19:51:09;98690.66;;;6.04;100.00
63405;BME280;49541;57.840;12.306;2024-03-23T19:56:09;98685.91;;;6.26;100.00
63405;BME280;49541;57.840;12.306;2024-03-23T20:01:14;98684.72;;;6.38;100.00
63405;BME280;49541;57.840;12.306;2024-03-23T20:06:15;98689.41;;;6.26;100.00
63405;BME280;49541;57.840;12.306;2024-03-23T20:11:15;98682.66;;;6.32;100.00
63405;BME280;49541;57.840;12.306;2024-03-23T20:16:15;98680.16;;;6.48;100.00
63405;BME280;49541;57.840;12.306;2024-03-23T20:21:16;98673.63;;;6.17;100.00
63405;BME280;49541;57.840;12.306;2024-03-23T20:26:16;98674.38;;;6.27;100.00
63405;BME280;49541;57.840;12.306;2024-03-23T20:31:17;98684.16;;;6.34;100.00
63405;BME280;49541;57.840;12.306;2024-03-23T20:36:18;98681.03;;;6.31;100.00
63405;BME280;49541;57.840;12.306;2024-03-23T20:41:18;98670.66;;;5.56;100.00
63405;BME280;49541;57.840;12.306;2024-03-23T20:46:20;98670.09;;;5.52;100.00
63405;BME280;49541;57.840;12.306;2024-03-23T20:51:20;98660.59;;;5.87;100.00
63405;BME280;49541;57.840;12.306;2024-03-23T20:56:21;98657.66;;;5.90;100.00
63405;BME280;49541;57.840;12.306;2024-03-23T21:01:21;98653.63;;;5.96;100.00
63405;BME280;49541;57.840;12.306;2024-03-23T21:06:22;98655.28;;;5.69;100.00
63405;BME280;49541;57.840;12.306;2024-03-23T21:11:23;98665.06;;;5.59;100.00
63405;BME280;49541;57.840;12.306;2024-03-23T21:16:24;98660.50;;;5.79;100.00
63405;BME280;49541;57.840;12.306;2024-03-23T21:21:24;98655.84;;;5.91;100.00
63405;BME280;49541;57.840;12.306;2024-03-23T21:26:27;98646.00;;;5.65;100.00
63405;BME280;49541;57.840;12.306;2024-03-23T21:31:27;98646.91;;;6.20;100.00
63405;BME280;49541;57.840;12.306;2024-03-23T21:36:27;98649.16;;;6.32;100.00
63405;BME280;49541;57.840;12.306;2024-03-23T21:41:28;98650.19;;;5.86;100.00
63405;BME280;49541;57.840;12.306;2024-03-23T21:46:29;98646.69;;;5.40;100.00
63405;BME280;49541;57.840;12.306;2024-03-23T21:51:29;98644.91;;;5.86;100.00
63405;BME280;49541;57.840;12.306;2024-03-23T21:56:29;98635.19;;;6.04;100.00
63405;BME280;49541;57.840;12.306;2024-03-23T22:01:30;98638.03;;;6.47;100.00
63405;BME280;49541;57.840;12.306;2024-03-23T22:06:30;98638.31;;;6.18;100.00
63405;BME280;49541;57.840;12.306;2024-03-23T22:11:30;98626.97;;;6.07;100.00
63405;BME280;49541;57.840;12.306;2024-03-23T22:16:30;98620.38;;;5.93;100.00
63405;BME280;49541;57.840;12.306;2024-03-23T22:21:31;98625.94;;;6.00;100.00
63405;BME280;49541;57.840;12.306;2024-03-23T22:26:31;98629.72;;;6.24;100.00
63405;BME280;49541;57.840;12.306;2024-03-23T22:31:32;98630.28;;;6.09;100.00
63405;BME280;49541;57.840;12.306;2024-03-23T22:36:32;98626.38;;;6.13;100.00
63405;BME280;49541;57.840;12.306;2024-03-23T22:41:32;98632.44;;;6.32;100.00
63405;BME280;49541;57.840;12.306;2024-03-23T22:46:32;98624.78;;;6.65;100.00
63405;BME280;49541;57.840;12.306;2024-03-23T22:51:33;98619.84;;;6.70;100.00
63405;BME280;49541;57.840;12.306;2024-03-23T22:56:33;98618.13;;;6.61;100.00
63405;BME280;49541;57.840;12.306;2024-03-23T23:01:33;98608.44;;;6.43;100.00
63405;BME280;49541;57.840;12.306;2024-03-23T23:06:33;98615.00;;;6.39;100.00
63405;BME280;49541;57.840;12.306;2024-03-23T23:11:35;98607.50;;;6.52;100.00
63405;BME280;49541;57.840;12.306;2024-03-23T23:16:35;98594.00;;;6.38;100.00
63405;BME280;49541;57.840;12.306;2024-03-23T23:21:35;98597.00;;;6.17;100.00
63405;BME280;49541;57.840;12.306;2024-03-23T23:26:36;98602.16;;;6.44;100.00
63405;BME280;49541;57.840;12.306;2024-03-23T23:31:37;98603.50;;;6.48;100.00
63405;BME280;49541;57.840;12.306;2024-03-23T23:36:37;98595.81;;;6.89;100.00
63405;BME280;49541;57.840;12.306;2024-03-23T23:41:37;98598.00;;;6.68;100.00
63405;BME280;49541;57.840;12.306;2024-03-23T23:46:37;98593.78;;;6.05;100.00
63405;BME280;49541;57.840;12.306;2024-03-23T23:51:37;98603.16;;;6.25;100.00
63405;BME280;49541;57.840;12.306;2024-03-23T23:56:38;98592.41;;;6.71;100.00
